Time;durP1;ratioP1;P1;durP2;ratioP2;P2;SDS_P1;SDS_P2;PMS_P1;PMS_P2;Temp;Humidity;BMP_temperature;BMP_pressure;BME280_temperature;BME280_humidity;BME280_pressure;Samples;Min_cycle;Max_cycle;Signal;HPM_P1;HPM_P2
2022/06/27 00:00:25;;;;;;;1.80;1.70;;;;;;;;;;5055960;28;20407;-66
2022/06/27 00:02:51;;;;;;;3.17;1.77;;;;;;;;;;5056050;28;20904;-65
2022/06/27 00:05:17;;;;;;;2.07;2.00;;;;;;;;;;5055986;28;20413;-67
2022/06/27 00:07:43;;;;;;;2.00;1.90;;;;;;;;;;5055891;28;20463;-66
2022/06/27 00:10:09;;;;;;;2.20;2.10;;;;;;;;;;5055850;28;20403;-67
2022/06/27 00:12:36;;;;;;;4.73;1.93;;;;;;;;;;5055861;28;20402;-67
2022/06/27 00:15:03;;;;;;;2.00;1.80;;;;;;;;;;5055599;28;20536;-67
2022/06/27 00:17:29;;;;;;;3.43;2.07;;;;;;;;;;5055650;28;20489;-67
2022/06/27 00:19:55;;;;;;;5.47;1.87;;;;;;;;;;5055760;28;20415;-66
2022/06/27 00:22:21;;;;;;;2.50;2.20;;;;;;;;;;5055604;28;20969;-67
2022/06/27 00:24:47;;;;;;;2.20;2.10;;;;;;;;;;5055598;28;20414;-68
2022/06/27 00:27:13;;;;;;;6.33;2.20;;;;;;;;;;5055657;28;20749;-66
2022/06/27 00:29:40;;;;;;;1.87;1.87;;;;;;;;;;5055806;28;20830;-66
2022/06/27 00:32:07;;;;;;;2.00;2.00;;;;;;;;;;5055459;28;20410;-69
2022/06/27 00:34:33;;;;;;;2.00;1.90;;;;;;;;;;5055478;28;20506;-70
2022/06/27 00:37:00;;;;;;;2.93;2.10;;;;;;;;;;5055306;28;20503;-68
2022/06/27 00:39:26;;;;;;;1.67;1.67;;;;;;;;;;5054147;28;20510;-70
2022/06/27 00:41:52;;;;;;;1.63;1.53;;;;;;;;;;5055315;28;20407;-70
2022/06/27 00:44:38;;;;;;;4.73;2.30;;;;;;;;;;5055254;28;20807;-69
2022/06/27 00:47:05;;;;;;;2.13;2.13;;;;;;;;;;5055153;28;20865;-70
2022/06/27 00:49:31;;;;;;;2.87;1.93;;;;;;;;;;5055184;28;20413;-68
2022/06/27 00:51:57;;;;;;;2.90;1.70;;;;;;;;;;5055137;28;20415;-67
2022/06/27 00:54:24;;;;;;;1.50;1.50;;;;;;;;;;5055077;28;20417;-67
2022/06/27 00:56:50;;;;;;;2.57;2.40;;;;;;;;;;5054999;28;20498;-67
2022/06/27 00:59:16;;;;;;;2.37;2.27;;;;;;;;;;5053706;28;20914;-66
2022/06/27 01:01:42;;;;;;;2.50;2.40;;;;;;;;;;5054863;28;21006;-67
2022/06/27 01:04:08;;;;;;;2.73;2.57;;;;;;;;;;5054912;28;20413;-67
2022/06/27 01:06:34;;;;;;;1.90;1.90;;;;;;;;;;5054581;28;20560;-67
2022/06/27 01:09:00;;;;;;;2.07;2.00;;;;;;;;;;5054739;28;20429;-67
2022/06/27 01:11:26;;;;;;;2.47;2.27;;;;;;;;;;5054753;28;20415;-68
2022/06/27 01:13:52;;;;;;;3.70;2.27;;;;;;;;;;5054469;28;20825;-66
2022/06/27 01:16:19;;;;;;;1.97;1.97;;;;;;;;;;5054568;28;20505;-68
2022/06/27 01:18:45;;;;;;;2.20;2.00;;;;;;;;;;5054649;28;20399;-66
2022/06/27 01:21:20;;;;;;;1.70;1.70;;;;;;;;;;5054524;28;20418;-67
2022/06/27 01:23:46;;;;;;;1.97;1.87;;;;;;;;;;5054423;28;20399;-67
2022/06/27 01:26:13;;;;;;;2.60;2.07;;;;;;;;;;5054421;28;20786;-66
2022/06/27 01:28:39;;;;;;;5.03;1.93;;;;;;;;;;5054433;28;20412;-67
2022/06/27 01:31:05;;;;;;;1.87;1.87;;;;;;;;;;5054336;28;20425;-68
2022/06/27 01:33:31;;;;;;;2.10;2.00;;;;;;;;;;5054303;28;20409;-70
2022/06/27 01:38:42;;;;;;;2.30;2.10;;;;;;;;;;5054175;28;20491;-70
2022/06/27 01:41:08;;;;;;;1.77;1.73;;;;;;;;;;5054103;28;20504;-69
2022/06/27 01:43:34;;;;;;;2.20;1.60;;;;;;;;;;5054129;28;20391;-68
2022/06/27 01:46:00;;;;;;;1.70;1.60;;;;;;;;;;5053984;28;20446;-69
2022/06/27 01:48:27;;;;;;;2.50;2.30;;;;;;;;;;5054034;28;20410;-67
2022/06/27 01:50:54;;;;;;;2.93;1.83;;;;;;;;;;5053974;28;20411;-67
2022/06/27 01:53:22;;;;;;;1.97;1.77;;;;;;;;;;5053993;28;20448;-68
2022/06/27 01:55:48;;;;;;;2.40;2.40;;;;;;;;;;5053867;28;20468;-67
2022/06/27 01:58:14;;;;;;;2.70;2.23;;;;;;;;;;5053835;28;20444;-66
2022/06/27 02:00:40;;;;;;;2.13;1.93;;;;;;;;;;5053824;28;20411;-67
2022/06/27 02:03:06;;;;;;;3.20;2.20;;;;;;;;;;5053809;28;20430;-69
2022/06/27 02:05:33;;;;;;;2.43;1.67;;;;;;;;;;5053709;28;20846;-69
2022/06/27 02:07:59;;;;;;;2.00;2.00;;;;;;;;;;5053702;28;20398;-67
2022/06/27 02:10:25;;;;;;;2.20;2.10;;;;;;;;;;5053717;28;20417;-67
2022/06/27 02:12:51;;;;;;;1.93;1.83;;;;;;;;;;5053680;28;20412;-68
2022/06/27 02:15:17;;;;;;;2.10;2.00;;;;;;;;;;5053320;28;20470;-67
2022/06/27 02:17:43;;;;;;;1.80;1.80;;;;;;;;;;5053322;28;20421;-69
2022/06/27 02:20:09;;;;;;;3.70;2.00;;;;;;;;;;5053251;28;20406;-68
2022/06/27 02:22:35;;;;;;;1.80;1.80;;;;;;;;;;5053513;28;20410;-69
2022/06/27 02:25:01;;;;;;;1.90;1.80;;;;;;;;;;5053537;28;20399;-71
2022/06/27 02:27:29;;;;;;;4.70;1.90;;;;;;;;;;5053579;28;20426;-67
2022/06/27 02:29:56;;;;;;;1.33;1.33;;;;;;;;;;5053414;28;20403;-68
2022/06/27 02:32:22;;;;;;;2.20;2.10;;;;;;;;;;5053310;28;20414;-67
2022/06/27 02:34:49;;;;;;;2.90;2.23;;;;;;;;;;5053376;28;20406;-67
2022/06/27 02:37:16;;;;;;;2.00;1.83;;;;;;;;;;5053291;28;20459;-68
2022/06/27 02:39:44;;;;;;;1.97;1.87;;;;;;;;;;5053439;28;20422;-67
2022/06/27 02:42:12;;;;;;;1.40;1.40;;;;;;;;;;5053288;28;20413;-66
2022/06/27 02:44:39;;;;;;;1.93;1.93;;;;;;;;;;5053553;28;20437;-66
2022/06/27 02:47:06;;;;;;;2.27;1.60;;;;;;;;;;5053247;28;20421;-67
2022/06/27 02:49:32;;;;;;;1.90;1.80;;;;;;;;;;5053281;28;20406;-66
2022/06/27 02:52:03;;;;;;;2.10;2.00;;;;;;;;;;5053269;28;20899;-66
2022/06/27 02:54:55;;;;;;;3.23;2.17;;;;;;;;;;5053264;28;20424;-69
2022/06/27 02:57:41;;;;;;;2.63;2.43;;;;;;;;;;5051933;28;20490;-68
2022/06/27 03:00:08;;;;;;;3.17;2.20;;;;;;;;;;5053135;28;20414;-67
2022/06/27 03:02:36;;;;;;;2.17;2.00;;;;;;;;;;5053119;28;20430;-68
2022/06/27 03:05:03;;;;;;;2.67;2.03;;;;;;;;;;5053086;28;20417;-67
2022/06/27 03:07:29;;;;;;;2.40;2.17;;;;;;;;;;5051798;28;20433;-68
2022/06/27 03:10:01;;;;;;;2.30;2.20;;;;;;;;;;5051786;28;20789;-67
2022/06/27 03:12:27;;;;;;;1.80;1.80;;;;;;;;;;5053050;28;20432;-68
2022/06/27 03:14:53;;;;;;;2.47;2.27;;;;;;;;;;5052863;28;20468;-72
2022/06/27 03:17:19;;;;;;;2.27;2.17;;;;;;;;;;5052848;28;20513;-72
2022/06/27 03:19:45;;;;;;;3.23;2.07;;;;;;;;;;5052943;28;20429;-72
2022/06/27 03:22:11;;;;;;;3.53;3.30;;;;;;;;;;5053176;28;20407;-72
2022/06/27 03:24:37;;;;;;;3.03;2.83;;;;;;;;;;5052950;28;20819;-72
2022/06/27 03:27:03;;;;;;;3.37;2.93;;;;;;;;;;5052840;28;20502;-72
2022/06/27 03:29:29;;;;;;;3.20;3.00;;;;;;;;;;5052568;28;20848;-72
2022/06/27 03:31:55;;;;;;;3.00;2.90;;;;;;;;;;5056534;28;20522;-72
2022/06/27 03:34:21;;;;;;;2.43;2.33;;;;;;;;;;5056570;28;20419;-68
2022/06/27 03:36:47;;;;;;;2.57;2.37;;;;;;;;;;5056441;28;20477;-72
2022/06/27 03:39:13;;;;;;;2.97;2.60;;;;;;;;;;5056505;28;20402;-71
2022/06/27 03:41:39;;;;;;;4.13;3.13;;;;;;;;;;5056414;28;20772;-72
2022/06/27 03:44:08;;;;;;;2.90;2.70;;;;;;;;;;5056321;28;20403;-72
2022/06/27 03:46:34;;;;;;;7.90;3.57;;;;;;;;;;5056346;28;20418;-71
2022/06/27 03:51:45;;;;;;;8.20;3.43;;;;;;;;;;5056239;28;20410;-71
2022/06/27 03:54:11;;;;;;;3.03;3.03;;;;;;;;;;5056123;28;20404;-72
2022/06/27 03:56:37;;;;;;;3.13;2.67;;;;;;;;;;5056112;28;20479;-71
2022/06/27 03:59:03;;;;;;;4.77;2.93;;;;;;;;;;5054778;28;20413;-71
2022/06/27 04:01:29;;;;;;;2.60;2.50;;;;;;;;;;5056133;28;20445;-70
2022/06/27 04:03:55;;;;;;;3.10;2.60;;;;;;;;;;5056061;28;20411;-72
2022/06/27 04:06:21;;;;;;;2.20;2.10;;;;;;;;;;5055938;28;20411;-70
2022/06/27 04:08:47;;;;;;;3.47;2.60;;;;;;;;;;5055959;28;20947;-71
2022/06/27 04:11:13;;;;;;;2.60;2.40;;;;;;;;;;5055879;28;20411;-71
2022/06/27 04:13:39;;;;;;;2.53;2.33;;;;;;;;;;5055750;28;20563;-72
2022/06/27 04:16:05;;;;;;;4.23;2.00;;;;;;;;;;5055676;28;20459;-71
2022/06/27 04:18:32;;;;;;;2.10;2.00;;;;;;;;;;5054477;28;20430;-71
2022/06/27 04:20:58;;;;;;;2.40;2.20;;;;;;;;;;5055820;28;20855;-71
2022/06/27 04:23:24;;;;;;;3.63;2.17;;;;;;;;;;5055716;28;20429;-71
2022/06/27 04:25:50;;;;;;;8.60;3.03;;;;;;;;;;5055607;28;20421;-69
2022/06/27 04:28:16;;;;;;;2.13;2.13;;;;;;;;;;5055547;28;20411;-70
2022/06/27 04:30:42;;;;;;;3.13;2.30;;;;;;;;;;5055530;28;20420;-70
2022/06/27 04:33:08;;;;;;;2.50;2.40;;;;;;;;;;5055512;28;20408;-69
2022/06/27 04:35:36;;;;;;;2.23;2.13;;;;;;;;;;5055295;28;20419;-70
2022/06/27 04:38:02;;;;;;;4.17;3.67;;;;;;;;;;5054156;28;20461;-70
2022/06/27 04:40:28;;;;;;;3.90;3.60;;;;;;;;;;5055186;28;20495;-70
2022/06/27 04:42:56;;;;;;;4.07;3.97;;;;;;;;;;5054754;28;20429;-70
2022/06/27 04:45:22;;;;;;;5.23;5.00;;;;;;;;;;5055202;28;20422;-69
2022/06/27 04:47:49;;;;;;;4.53;4.33;;;;;;;;;;5055190;28;20405;-69
2022/06/27 04:50:17;;;;;;;5.97;5.53;;;;;;;;;;5055218;28;20406;-70
2022/06/27 04:52:44;;;;;;;6.63;6.23;;;;;;;;;;5055056;28;20424;-70
2022/06/27 04:55:12;;;;;;;8.27;7.57;;;;;;;;;;5055014;28;20403;-68
2022/06/27 04:57:39;;;;;;;8.47;7.70;;;;;;;;;;5054974;28;20547;-70
2022/06/27 05:00:07;;;;;;;7.60;7.00;;;;;;;;;;5054995;28;20404;-70
2022/06/27 05:02:33;;;;;;;6.50;6.13;;;;;;;;;;5054846;28;20443;-69
2022/06/27 05:04:59;;;;;;;6.67;6.30;;;;;;;;;;5054738;28;20402;-68
2022/06/27 05:07:25;;;;;;;7.73;7.00;;;;;;;;;;5054814;28;20497;-69
2022/06/27 05:09:56;;;;;;;7.50;7.20;;;;;;;;;;5054739;28;20763;-71
2022/06/27 05:12:22;;;;;;;10.20;6.00;;;;;;;;;;5054675;28;20859;-69
2022/06/27 05:14:48;;;;;;;8.20;7.60;;;;;;;;;;5053107;28;20519;-69
2022/06/27 05:17:14;;;;;;;10.13;9.43;;;;;;;;;;5054453;28;20848;-68
2022/06/27 05:19:40;;;;;;;9.53;6.40;;;;;;;;;;5054582;28;20410;-70
2022/06/27 05:22:07;;;;;;;7.07;6.67;;;;;;;;;;5054535;28;20433;-68
2022/06/27 05:24:33;;;;;;;8.50;7.77;;;;;;;;;;5054475;28;20417;-68
2022/06/27 05:26:59;;;;;;;8.53;7.87;;;;;;;;;;5054413;28;20414;-65
2022/06/27 05:29:25;;;;;;;8.07;7.27;;;;;;;;;;5054338;28;20416;-67
2022/06/27 05:31:51;;;;;;;6.87;6.63;;;;;;;;;;5054180;28;20421;-66
2022/06/27 05:34:17;;;;;;;6.40;6.00;;;;;;;;;;5054383;28;20471;-66
2022/06/27 05:36:43;;;;;;;5.77;5.27;;;;;;;;;;5054142;28;20473;-67
2022/06/27 05:39:09;;;;;;;10.60;6.40;;;;;;;;;;5054187;28;20414;-67
2022/06/27 05:41:36;;;;;;;7.70;5.27;;;;;;;;;;5054116;28;20413;-67
2022/06/27 05:44:03;;;;;;;6.43;6.00;;;;;;;;;;5054103;28;20402;-67
2022/06/27 05:46:29;;;;;;;7.23;6.80;;;;;;;;;;5054009;28;20430;-66
2022/06/27 05:48:56;;;;;;;6.83;6.33;;;;;;;;;;5053997;28;20418;-65
2022/06/27 05:51:22;;;;;;;7.77;7.13;;;;;;;;;;5053915;28;20781;-66
2022/06/27 05:53:49;;;;;;;8.83;7.97;;;;;;;;;;5053111;28;20412;-67
2022/06/27 05:56:15;;;;;;;8.57;7.83;;;;;;;;;;5053790;28;20465;-67
2022/06/27 05:58:42;;;;;;;9.00;8.40;;;;;;;;;;5053789;28;20429;-68
2022/06/27 06:01:11;;;;;;;10.17;9.10;;;;;;;;;;5053752;28;20426;-65
2022/06/27 06:03:38;;;;;;;11.53;9.70;;;;;;;;;;5053779;28;20407;-66
2022/06/27 06:06:04;;;;;;;12.60;10.13;;;;;;;;;;5053791;28;20417;-67
2022/06/27 06:08:32;;;;;;;11.20;10.10;;;;;;;;;;5053781;28;20412;-67
2022/06/27 06:10:58;;;;;;;11.33;10.27;;;;;;;;;;5053714;28;20491;-68
2022/06/27 06:13:25;;;;;;;11.10;9.90;;;;;;;;;;5053637;28;20420;-69
2022/06/27 06:15:52;;;;;;;10.90;10.00;;;;;;;;;;5053627;28;20817;-69
2022/06/27 06:18:18;;;;;;;10.07;9.20;;;;;;;;;;5053705;28;20443;-65
2022/06/27 06:20:44;;;;;;;10.90;10.10;;;;;;;;;;5053657;28;20833;-69
2022/06/27 06:23:10;;;;;;;11.10;10.10;;;;;;;;;;5053607;28;20417;-67
2022/06/27 06:25:36;;;;;;;11.13;10.37;;;;;;;;;;5053601;28;20408;-70
2022/06/27 06:28:03;;;;;;;10.93;10.07;;;;;;;;;;5053946;28;20458;-69
2022/06/27 06:30:31;;;;;;;12.77;11.33;;;;;;;;;;5053542;28;20494;-68
2022/06/27 06:33:01;;;;;;;33.47;12.63;;;;;;;;;;5053581;28;20479;-68
2022/06/27 06:35:27;;;;;;;12.43;11.33;;;;;;;;;;5053661;28;20825;-69
2022/06/27 06:37:53;;;;;;;11.50;10.50;;;;;;;;;;5053422;28;20907;-68
2022/06/27 06:40:19;;;;;;;11.17;10.40;;;;;;;;;;5053373;28;20416;-67
2022/06/27 06:42:45;;;;;;;11.60;10.50;;;;;;;;;;5053392;28;20497;-67
2022/06/27 06:45:11;;;;;;;11.40;10.70;;;;;;;;;;5053383;28;20407;-69
2022/06/27 06:47:50;;;;;;;12.43;11.57;;;;;;;;;;5053306;28;20419;-68
2022/06/27 06:50:18;;;;;;;11.40;10.67;;;;;;;;;;5053246;28;20419;-69
2022/06/27 06:52:51;;;;;;;11.33;10.50;;;;;;;;;;5053243;28;20402;-68
2022/06/27 06:55:20;;;;;;;12.37;11.43;;;;;;;;;;5053379;28;20756;-69
2022/06/27 06:57:46;;;;;;;13.47;12.37;;;;;;;;;;5053113;28;20468;-68
2022/06/27 07:00:12;;;;;;;10.63;9.67;;;;;;;;;;5053198;28;20490;-69
2022/06/27 07:02:38;;;;;;;12.20;11.10;;;;;;;;;;5053170;28;20422;-69
2022/06/27 07:05:08;;;;;;;13.00;11.97;;;;;;;;;;5053492;28;20488;-69
2022/06/27 07:07:34;;;;;;;9.80;9.00;;;;;;;;;;5055849;28;20501;-68
2022/06/27 07:10:00;;;;;;;8.80;8.33;;;;;;;;;;5055772;28;20958;-69
2022/06/27 07:12:26;;;;;;;9.30;8.80;;;;;;;;;;5057022;28;21006;-67
2022/06/27 07:14:56;;;;;;;9.23;8.60;;;;;;;;;;5056988;28;20471;-68
2022/06/27 07:17:24;;;;;;;7.37;7.00;;;;;;;;;;5056778;28;20604;-69
2022/06/27 07:19:52;;;;;;;8.20;7.33;;;;;;;;;;5056848;28;20501;-70
2022/06/27 07:22:19;;;;;;;8.03;7.53;;;;;;;;;;5056786;28;20499;-68
2022/06/27 07:24:47;;;;;;;7.13;6.50;;;;;;;;;;5056728;28;20489;-69
2022/06/27 07:27:14;;;;;;;6.30;6.10;;;;;;;;;;5055416;28;20937;-71
2022/06/27 07:29:40;;;;;;;7.13;6.83;;;;;;;;;;5056665;28;20401;-71
2022/06/27 07:32:08;;;;;;;8.60;7.90;;;;;;;;;;5056852;28;20987;-70
2022/06/27 07:34:34;;;;;;;9.33;8.53;;;;;;;;;;5056534;28;20408;-68
2022/06/27 07:37:00;;;;;;;9.33;8.53;;;;;;;;;;5056430;28;20469;-68
2022/06/27 07:39:26;;;;;;;8.00;7.40;;;;;;;;;;5056391;28;20733;-66
2022/06/27 07:41:53;;;;;;;7.50;6.90;;;;;;;;;;5056537;28;20460;-67
2022/06/27 07:44:19;;;;;;;8.00;7.43;;;;;;;;;;5055086;28;20842;-68
2022/06/27 07:46:45;;;;;;;8.60;7.80;;;;;;;;;;5056359;28;20423;-68
2022/06/27 07:49:11;;;;;;;7.70;7.10;;;;;;;;;;5056259;28;20415;-68
2022/06/27 07:51:37;;;;;;;7.47;6.97;;;;;;;;;;5056252;28;20447;-67
2022/06/27 07:54:03;;;;;;;6.20;6.00;;;;;;;;;;5056229;28;20891;-68
2022/06/27 07:56:29;;;;;;;9.97;7.10;;;;;;;;;;5056139;28;20957;-74
2022/06/27 07:58:55;;;;;;;7.47;7.07;;;;;;;;;;5056182;28;20453;-72
2022/06/27 08:01:23;;;;;;;7.10;6.67;;;;;;;;;;5056054;28;20442;-71
2022/06/27 08:03:49;;;;;;;5.93;5.43;;;;;;;;;;5054814;28;20438;-71
2022/06/27 08:06:15;;;;;;;7.53;6.93;;;;;;;;;;5056028;28;20423;-71
2022/06/27 08:08:43;;;;;;;5.63;4.83;;;;;;;;;;5055970;28;20413;-71
2022/06/27 08:11:10;;;;;;;4.23;3.97;;;;;;;;;;5055917;28;20501;-71
2022/06/27 08:13:37;;;;;;;4.50;4.30;;;;;;;;;;5055800;28;20909;-71
2022/06/27 08:16:04;;;;;;;3.80;3.60;;;;;;;;;;5054828;28;20843;-68
2022/06/27 08:18:35;;;;;;;3.70;3.60;;;;;;;;;;5055718;28;20502;-68
2022/06/27 08:21:01;;;;;;;3.50;3.40;;;;;;;;;;5055693;28;20408;-70
2022/06/27 08:23:27;;;;;;;3.20;3.10;;;;;;;;;;5055668;28;20411;-69
2022/06/27 08:25:53;;;;;;;2.90;2.87;;;;;;;;;;5055657;28;20449;-71
2022/06/27 08:28:20;;;;;;;3.00;2.90;;;;;;;;;;5055601;28;20504;-70
2022/06/27 08:30:47;;;;;;;2.87;2.60;;;;;;;;;;5055534;28;20413;-70
2022/06/27 08:33:13;;;;;;;2.80;2.30;;;;;;;;;;5055440;28;20417;-70
2022/06/27 08:35:47;;;;;;;1.60;1.60;;;;;;;;;;5055279;28;20449;-70
2022/06/27 08:38:13;;;;;;;1.97;1.70;;;;;;;;;;5055379;28;20451;-71
2022/06/27 08:40:41;;;;;;;3.93;1.87;;;;;;;;;;5054008;28;20440;-72
2022/06/27 08:43:09;;;;;;;3.23;1.40;;;;;;;;;;5055326;28;20414;-69
2022/06/27 08:45:36;;;;;;;1.43;1.37;;;;;;;;;;5055185;28;20407;-68
2022/06/27 08:48:07;;;;;;;1.47;1.40;;;;;;;;;;5055238;28;20424;-68
2022/06/27 08:50:34;;;;;;;1.20;1.20;;;;;;;;;;5055089;28;20409;-70
2022/06/27 08:53:00;;;;;;;2.50;1.23;;;;;;;;;;5055137;28;20430;-69
2022/06/27 08:55:26;;;;;;;1.57;1.57;;;;;;;;;;5055064;28;20895;-69
2022/06/27 08:57:52;;;;;;;1.20;1.20;;;;;;;;;;5054967;28;20837;-70
2022/06/27 09:00:18;;;;;;;1.73;1.63;;;;;;;;;;5053648;28;20426;-71
2022/06/27 09:02:44;;;;;;;1.00;1.00;;;;;;;;;;5054849;28;20479;-70
2022/06/27 09:05:21;;;;;;;1.63;1.53;;;;;;;;;;5055098;28;20406;-70
2022/06/27 09:07:48;;;;;;;1.40;1.30;;;;;;;;;;5053576;28;20434;-68
2022/06/27 09:10:33;;;;;;;1.50;1.50;;;;;;;;;;5053424;28;20465;-70
2022/06/27 09:13:06;;;;;;;4.33;1.80;;;;;;;;;;5054669;28;20406;-71
2022/06/27 09:15:42;;;;;;;1.50;1.50;;;;;;;;;;5054375;28;20532;-72
2022/06/27 09:18:09;;;;;;;1.50;1.50;;;;;;;;;;5054520;28;20796;-71
2022/06/27 09:20:55;;;;;;;2.37;2.27;;;;;;;;;;5054514;28;20417;-69
2022/06/27 09:23:50;;;;;;;2.50;2.40;;;;;;;;;;5050584;28;20462;-70
2022/06/27 09:26:25;;;;;;;2.30;2.20;;;;;;;;;;5054398;28;20406;-71
2022/06/27 09:28:59;;;;;;;2.30;2.30;;;;;;;;;;5054308;28;20416;-69
2022/06/27 09:31:30;;;;;;;3.03;2.80;;;;;;;;;;5054278;28;20418;-71
2022/06/27 09:34:08;;;;;;;2.17;2.03;;;;;;;;;;5053067;28;20453;-71
2022/06/27 09:36:35;;;;;;;2.27;2.10;;;;;;;;;;5054172;28;20462;-70
2022/06/27 09:39:02;;;;;;;2.30;2.07;;;;;;;;;;5054216;28;20414;-70
2022/06/27 09:41:32;;;;;;;2.37;2.13;;;;;;;;;;5054131;28;20476;-70
2022/06/27 09:44:10;;;;;;;1.60;1.50;;;;;;;;;;5054070;28;20420;-71
2022/06/27 09:46:38;;;;;;;1.70;1.63;;;;;;;;;;5054021;28;20411;-70
2022/06/27 09:49:07;;;;;;;1.90;1.80;;;;;;;;;;5054371;28;20415;-70
2022/06/27 09:51:37;;;;;;;1.37;1.37;;;;;;;;;;5054237;28;20758;-70
2022/06/27 09:54:10;;;;;;;1.30;1.30;;;;;;;;;;5052676;28;20419;-69
2022/06/27 09:56:39;;;;;;;1.50;1.33;;;;;;;;;;5052554;28;20881;-69
2022/06/27 09:59:06;;;;;;;2.40;1.20;;;;;;;;;;5053933;28;20501;-68
2022/06/27 10:01:33;;;;;;;1.90;1.30;;;;;;;;;;5053810;28;20476;-70
2022/06/27 10:04:00;;;;;;;1.50;1.40;;;;;;;;;;5053824;28;20408;-69
2022/06/27 10:06:27;;;;;;;4.10;1.50;;;;;;;;;;5052542;28;20410;-70
2022/06/27 10:08:53;;;;;;;1.13;1.13;;;;;;;;;;5053733;28;20931;-68
2022/06/27 10:11:19;;;;;;;1.53;1.43;;;;;;;;;;5053661;28;20406;-69
2022/06/27 10:14:05;;;;;;;2.80;2.00;;;;;;;;;;5053482;28;20901;-69
2022/06/27 10:16:31;;;;;;;1.90;1.80;;;;;;;;;;5053363;28;20949;-67
2022/06/27 10:19:03;;;;;;;1.87;1.70;;;;;;;;;;5053611;28;20471;-70
2022/06/27 10:21:33;;;;;;;3.17;1.50;;;;;;;;;;5053504;28;20424;-69
2022/06/27 10:24:18;;;;;;;1.10;1.10;;;;;;;;;;5053571;28;20434;-69
2022/06/27 10:26:44;;;;;;;2.80;1.27;;;;;;;;;;5053450;28;20390;-67
2022/06/27 10:29:34;;;;;;;1.07;1.07;;;;;;;;;;5053445;28;20416;-68
2022/06/27 10:32:01;;;;;;;1.63;1.27;;;;;;;;;;5053399;28;20418;-67
2022/06/27 10:34:44;;;;;;;0.93;0.87;;;;;;;;;;5053444;28;20413;-67
2022/06/27 10:37:25;;;;;;;1.20;1.13;;;;;;;;;;5051924;28;20982;-68
2022/06/27 10:39:52;;;;;;;1.20;1.20;;;;;;;;;;5052748;28;20485;-69
2022/06/27 10:42:37;;;;;;;1.13;0.97;;;;;;;;;;5053382;28;20468;-69
2022/06/27 10:45:22;;;;;;;0.90;0.90;;;;;;;;;;5053258;28;20460;-69
2022/06/27 10:47:50;;;;;;;1.03;1.03;;;;;;;;;;5053277;28;20420;-68
2022/06/27 10:50:17;;;;;;;0.90;0.90;;;;;;;;;;5053278;28;20404;-68
2022/06/27 10:52:43;;;;;;;1.37;1.27;;;;;;;;;;5053285;28;20411;-68
2022/06/27 10:55:22;;;;;;;0.80;0.80;;;;;;;;;;5053156;28;20418;-68
2022/06/27 10:57:48;;;;;;;5.20;1.30;;;;;;;;;;5053087;28;20512;-69
2022/06/27 11:00:35;;;;;;;1.30;1.30;;;;;;;;;;5053174;28;20426;-70
2022/06/27 11:03:01;;;;;;;1.07;1.07;;;;;;;;;;5053091;28;20425;-69
2022/06/27 11:05:32;;;;;;;4.30;1.37;;;;;;;;;;5053110;28;20736;-70
2022/06/27 11:07:58;;;;;;;0.90;0.90;;;;;;;;;;5053104;28;20400;-69
2022/06/27 11:10:24;;;;;;;0.90;0.90;;;;;;;;;;5053135;28;20404;-67
2022/06/27 11:12:50;;;;;;;2.10;0.90;;;;;;;;;;5053089;28;20448;-68
2022/06/27 11:15:16;;;;;;;2.30;1.10;;;;;;;;;;5051500;28;20566;-69
2022/06/27 11:17:44;;;;;;;1.23;1.13;;;;;;;;;;5053001;28;20855;-68
2022/06/27 11:20:11;;;;;;;1.30;1.30;;;;;;;;;;5052945;28;20497;-69
2022/06/27 11:22:38;;;;;;;0.80;0.80;;;;;;;;;;5053019;28;20425;-69
2022/06/27 11:25:04;;;;;;;1.03;0.87;;;;;;;;;;5052965;28;20408;-68
2022/06/27 11:27:49;;;;;;;0.80;0.80;;;;;;;;;;5051544;28;20425;-70
2022/06/27 11:33:16;;;;;;;1.10;1.00;;;;;;;;;;5052845;28;20979;-69
2022/06/27 11:35:42;;;;;;;0.80;0.80;;;;;;;;;;5052766;28;20496;-69
2022/06/27 11:38:08;;;;;;;0.80;0.80;;;;;;;;;;5052656;28;21020;-68
2022/06/27 11:40:34;;;;;;;1.17;1.17;;;;;;;;;;5052768;28;20410;-68
2022/06/27 11:43:00;;;;;;;1.03;0.77;;;;;;;;;;5052667;28;20501;-69
2022/06/27 11:45:26;;;;;;;0.87;0.87;;;;;;;;;;5052752;28;20447;-69
2022/06/27 11:47:52;;;;;;;0.97;0.97;;;;;;;;;;5051326;28;20848;-67
2022/06/27 11:50:19;;;;;;;0.97;0.97;;;;;;;;;;5052626;28;20432;-69
2022/06/27 11:52:48;;;;;;;0.83;0.83;;;;;;;;;;5055231;28;20431;-69
2022/06/27 11:55:15;;;;;;;1.10;1.10;;;;;;;;;;5056212;28;20445;-69
2022/06/27 11:57:45;;;;;;;1.07;1.07;;;;;;;;;;5056102;28;20467;-69
2022/06/27 12:00:16;;;;;;;3.00;1.10;;;;;;;;;;5056068;28;20411;-69
2022/06/27 12:02:43;;;;;;;1.90;0.90;;;;;;;;;;5056039;28;20512;-69
2022/06/27 12:05:15;;;;;;;1.00;1.00;;;;;;;;;;5056053;28;20398;-69
2022/06/27 12:07:55;;;;;;;1.20;1.00;;;;;;;;;;5055947;28;20961;-69
2022/06/27 12:10:34;;;;;;;1.90;0.87;;;;;;;;;;5055880;28;20797;-69
2022/06/27 12:13:00;;;;;;;1.47;1.37;;;;;;;;;;5055827;28;20458;-70
2022/06/27 12:15:26;;;;;;;1.20;1.20;;;;;;;;;;5055689;28;20478;-69
2022/06/27 12:17:59;;;;;;;0.90;0.90;;;;;;;;;;5055665;28;20477;-70
2022/06/27 12:20:29;;;;;;;1.00;1.00;;;;;;;;;;5054457;28;20448;-70
2022/06/27 12:22:55;;;;;;;0.77;0.77;;;;;;;;;;5055782;28;20418;-70
2022/06/27 12:25:22;;;;;;;1.03;1.00;;;;;;;;;;5055665;28;20811;-69
2022/06/27 12:27:48;;;;;;;0.80;0.80;;;;;;;;;;5055634;28;20824;-68
2022/06/27 12:30:15;;;;;;;0.80;0.80;;;;;;;;;;5055580;28;20494;-70
2022/06/27 12:32:41;;;;;;;0.63;0.63;;;;;;;;;;5054172;28;20844;-70
2022/06/27 12:35:07;;;;;;;1.00;1.00;;;;;;;;;;5055455;28;20410;-69
2022/06/27 12:37:39;;;;;;;0.60;0.60;;;;;;;;;;5055365;28;20469;-69
2022/06/27 12:40:06;;;;;;;2.00;0.70;;;;;;;;;;5055353;28;20412;-69
2022/06/27 12:42:33;;;;;;;0.87;0.87;;;;;;;;;;5055287;28;20403;-69
2022/06/27 12:44:59;;;;;;;0.80;0.80;;;;;;;;;;5055366;28;20404;-69
2022/06/27 12:47:25;;;;;;;0.67;0.67;;;;;;;;;;5053949;28;20508;-69
2022/06/27 12:49:51;;;;;;;1.43;1.33;;;;;;;;;;5055177;28;20403;-69
2022/06/27 12:52:17;;;;;;;0.60;0.60;;;;;;;;;;5055086;28;20414;-68
2022/06/27 12:54:44;;;;;;;0.90;0.90;;;;;;;;;;5055170;28;20411;-70
2022/06/27 12:57:13;;;;;;;0.70;0.70;;;;;;;;;;5053659;28;20850;-69
2022/06/27 12:59:40;;;;;;;0.70;0.70;;;;;;;;;;5055049;28;20734;-69
2022/06/27 13:02:06;;;;;;;2.20;0.87;;;;;;;;;;5054444;28;20474;-69
2022/06/27 13:04:33;;;;;;;1.00;1.00;;;;;;;;;;5055005;28;20491;-70
2022/06/27 13:06:59;;;;;;;0.90;0.90;;;;;;;;;;5054945;28;20418;-69
2022/06/27 13:09:25;;;;;;;0.87;0.87;;;;;;;;;;5054829;28;20752;-69
2022/06/27 13:11:51;;;;;;;0.80;0.80;;;;;;;;;;5054689;28;20510;-69
2022/06/27 13:14:17;;;;;;;0.80;0.80;;;;;;;;;;5054597;28;20458;-70
2022/06/27 13:16:43;;;;;;;2.93;1.47;;;;;;;;;;5054525;28;20541;-69
2022/06/27 13:19:10;;;;;;;0.90;0.90;;;;;;;;;;5054497;28;20555;-69
2022/06/27 13:21:36;;;;;;;1.30;1.30;;;;;;;;;;5053688;28;20450;-68
2022/06/27 13:24:02;;;;;;;1.40;1.17;;;;;;;;;;5054301;28;20908;-68
2022/06/27 13:26:28;;;;;;;2.20;1.23;;;;;;;;;;5054702;28;20404;-67
2022/06/27 13:28:54;;;;;;;1.10;1.10;;;;;;;;;;5054172;28;20834;-69
2022/06/27 13:31:21;;;;;;;1.17;1.10;;;;;;;;;;5054202;28;20806;-69
2022/06/27 13:33:47;;;;;;;1.50;1.40;;;;;;;;;;5054229;28;20908;-68
2022/06/27 13:36:13;;;;;;;1.33;1.00;;;;;;;;;;5054006;28;20461;-69
2022/06/27 13:38:39;;;;;;;1.33;1.13;;;;;;;;;;5053869;28;20921;-69
2022/06/27 13:41:05;;;;;;;1.10;1.10;;;;;;;;;;5054041;28;20404;-69
2022/06/27 13:43:31;;;;;;;1.00;1.00;;;;;;;;;;5054210;28;20944;-69
2022/06/27 13:45:57;;;;;;;0.90;0.90;;;;;;;;;;5052764;28;20430;-69
2022/06/27 13:48:23;;;;;;;1.20;1.10;;;;;;;;;;5054018;28;20898;-69
2022/06/27 13:50:49;;;;;;;2.17;0.90;;;;;;;;;;5053883;28;20405;-69
2022/06/27 13:53:15;;;;;;;0.90;0.90;;;;;;;;;;5053960;28;20565;-69
2022/06/27 13:55:41;;;;;;;1.40;1.30;;;;;;;;;;5053950;28;20403;-69
2022/06/27 13:58:07;;;;;;;1.07;1.07;;;;;;;;;;5053719;28;20424;-69
2022/06/27 14:00:34;;;;;;;0.93;0.93;;;;;;;;;;5053486;28;20413;-69
2022/06/27 14:03:01;;;;;;;1.23;1.23;;;;;;;;;;5053617;28;20572;-69
2022/06/27 14:05:27;;;;;;;1.10;1.00;;;;;;;;;;5053339;28;20496;-69
2022/06/27 14:07:53;;;;;;;0.93;0.93;;;;;;;;;;5053738;28;20430;-68
2022/06/27 14:10:20;;;;;;;2.50;1.00;;;;;;;;;;5053662;28;20877;-69
2022/06/27 14:12:48;;;;;;;0.90;0.90;;;;;;;;;;5053279;28;20433;-69
2022/06/27 14:15:14;;;;;;;0.70;0.70;;;;;;;;;;5052551;28;20463;-69
2022/06/27 14:17:41;;;;;;;0.90;0.90;;;;;;;;;;5053279;28;20529;-69
2022/06/27 14:20:08;;;;;;;1.20;1.20;;;;;;;;;;5053241;28;20444;-69
2022/06/27 14:22:34;;;;;;;0.83;0.83;;;;;;;;;;5053593;28;20455;-68
2022/06/27 14:25:00;;;;;;;1.10;1.10;;;;;;;;;;5053665;28;20411;-69
2022/06/27 14:27:26;;;;;;;2.10;1.23;;;;;;;;;;5053418;28;20457;-69
2022/06/27 14:29:52;;;;;;;2.30;0.90;;;;;;;;;;5052905;28;20415;-69
2022/06/27 14:32:18;;;;;;;1.10;0.97;;;;;;;;;;5053086;28;20471;-69
2022/06/27 14:34:44;;;;;;;0.80;0.80;;;;;;;;;;5053233;28;20409;-69
2022/06/27 14:37:10;;;;;;;0.90;0.90;;;;;;;;;;5053009;28;20508;-69
2022/06/27 14:39:36;;;;;;;2.83;0.87;;;;;;;;;;5052961;28;20446;-68
2022/06/27 14:42:03;;;;;;;1.00;1.00;;;;;;;;;;5053320;28;20811;-69
2022/06/27 14:44:29;;;;;;;1.17;1.00;;;;;;;;;;5053174;28;20463;-68
2022/06/27 14:46:55;;;;;;;1.00;1.00;;;;;;;;;;5052994;28;20417;-69
2022/06/27 14:49:24;;;;;;;0.93;0.93;;;;;;;;;;5053164;28;20902;-69
2022/06/27 14:51:52;;;;;;;15.53;12.17;;;;;;;;;;5053134;28;20930;-69